Terminal Aerodrome Forecast
Issued by NWS Duluth, MN

Home | Current Version | Previous Version | Text Only | Print | Product List | Glossary On
Versions: 1 2 3 4 5 6 7 8 9 10 11 12 13 14 15 16 17 18 19 20 21 22 23 24 25 26 27 28 29 30 31 32 33
000
FTUS43 KDLH 300100 AAA
TAFDLH
TAF AMD
KDLH 300103Z 3001/3024 00000KT 1/4SM FG VV003
      TEMPO 3001/3002 1SM -DZ BR VV002
     FM300200 VRB03KT 1/2SM FG OVC001
     FM301500 04008KT 4SM BR OVC004
     FM301800 08008KT P6SM VCSH BKN025=

USA.gov is the U.S. government's official web portal to all federal, state and local government web resources and services.